KSNS/SNS METAR and TAF weather

Enter ICAO airport designator
Station Type Date Time Source
KSNS METAR 2018/12/10 01:53 UTC NOAA

KSNS 100153Z AUTO 00000KT 10SM CLR 13/09 A3023 RMK AO2 SLP246 T01280089


Station Type Date Time Source
KSNS Decoded METAR 2018/12/10 01:53 UTC NOAA

SALINAS MUNICIPAL AIRPORT, CA, United States (KSNS) 36-40N 121-36W 30M
Dec 09, 2018 - 08:53 PM EST / 2018.12.10 0153 UTC
Wind: Calm:0
Visibility: 10 mile(s):0
Sky conditions: clear
Temperature: 55.0 F (12.8 C)
Dew Point: 48.0 F (8.9 C)
Relative Humidity: 77%
Pressure (altimeter): 30.23 in. Hg (1023 hPa)
ob: KSNS 100153Z AUTO 00000KT 10SM CLR 13/09 A3023 RMK AO2 SLP246 T01280089
cycle: 2

Station Type Date Time Source
KSNS TAF 2018/12/09 18:24 UTC NOAA

TAF KSNS 091723Z 0918/1018 13012KT P6SM SCT150
FM092200 30008KT P6SM BKN150
FM100200 VRB03KT P6SM BKN150
FM100900 12008KT P6SM BKN120
FM101300 12011KT P6SM BKN050 BKN100


Example: see airport list